Time;durP1;ratioP1;P1;durP2;ratioP2;P2;SDS_P1;SDS_P2;PMS_P1;PMS_P2;Temp;Humidity;BMP_temperature;BMP_pressure;BME280_temperature;BME280_humidity;BME280_pressure;Samples;Min_cycle;Max_cycle;Signal;HPM_P1;HPM_P2
2022/10/09 00:01:10;;;;;;;1.63;0.80;;;;;;;;;;5096755;28;20411;-82
2022/10/09 00:03:37;;;;;;;3.67;0.80;;;;;;;;;;5111036;28;20045;-83
2022/10/09 00:06:04;;;;;;;0.65;0.57;;;;;;;;;;5112918;28;20038;-83
2022/10/09 00:08:29;;;;;;;1.27;1.17;;;;;;;;;;5114907;28;20030;-82
2022/10/09 00:10:55;;;;;;;0.98;0.75;;;;;;;;;;5113967;28;20031;-83
2022/10/09 00:13:21;;;;;;;0.63;0.63;;;;;;;;;;5095990;28;20027;-82
2022/10/09 00:15:47;;;;;;;0.98;0.32;;;;;;;;;;5095214;28;20055;-84
2022/10/09 00:18:15;;;;;;;0.63;0.52;;;;;;;;;;5114629;28;20051;-83
2022/10/09 00:20:43;;;;;;;0.20;0.20;;;;;;;;;;5114330;28;20036;-82
2022/10/09 00:23:10;;;;;;;2.25;0.63;;;;;;;;;;5093431;28;20024;-81
2022/10/09 00:25:36;;;;;;;0.55;0.55;;;;;;;;;;5094531;28;20501;-81
2022/10/09 00:28:03;;;;;;;0.45;0.45;;;;;;;;;;5109521;28;20019;-83
2022/10/09 00:30:28;;;;;;;0.70;0.43;;;;;;;;;;5093843;28;20031;-83
2022/10/09 00:32:54;;;;;;;0.82;0.47;;;;;;;;;;5111703;28;21547;-82
2022/10/09 00:35:20;;;;;;;0.98;0.80;;;;;;;;;;5092687;28;20563;-81
2022/10/09 00:37:46;;;;;;;0.57;0.52;;;;;;;;;;5109754;28;20479;-84
2022/10/09 00:40:11;;;;;;;0.60;0.60;;;;;;;;;;5095860;28;20073;-82
2022/10/09 00:42:37;;;;;;;1.02;0.47;;;;;;;;;;5093100;28;20467;-83
2022/10/09 00:45:03;;;;;;;0.70;0.70;;;;;;;;;;5110635;28;20028;-82
2022/10/09 00:47:32;;;;;;;1.60;1.13;;;;;;;;;;5092507;28;20115;-85
2022/10/09 00:50:03;;;;;;;0.40;0.40;;;;;;;;;;5093695;28;20015;-84
2022/10/09 00:52:30;;;;;;;1.17;0.90;;;;;;;;;;5106508;28;20043;-82
2022/10/09 00:54:57;;;;;;;0.63;0.63;;;;;;;;;;5093563;28;20107;-83
2022/10/09 00:57:23;;;;;;;0.98;0.77;;;;;;;;;;5111576;28;20083;-82
2022/10/09 00:59:49;;;;;;;0.70;0.70;;;;;;;;;;5093188;28;20054;-84
2022/10/09 01:02:14;;;;;;;0.73;0.70;;;;;;;;;;5094414;28;20483;-84
2022/10/09 01:04:40;;;;;;;0.80;0.80;;;;;;;;;;5107360;28;20096;-84
2022/10/09 01:07:22;;;;;;;1.00;0.93;;;;;;;;;;5093690;28;20074;-84
2022/10/09 01:10:10;;;;;;;2.47;1.65;;;;;;;;;;5093306;28;20038;-85
2022/10/09 01:12:38;;;;;;;0.80;0.50;;;;;;;;;;5113805;28;20042;-83
2022/10/09 01:15:21;;;;;;;0.90;0.65;;;;;;;;;;5112756;28;20467;-83
2022/10/09 01:17:58;;;;;;;0.70;0.68;;;;;;;;;;5091542;28;20031;-83
2022/10/09 01:20:50;;;;;;;3.20;1.10;;;;;;;;;;5089852;28;20122;-82
2022/10/09 01:23:37;;;;;;;0.20;0.20;;;;;;;;;;5112540;28;20039;-83
2022/10/09 01:26:10;;;;;;;1.35;0.70;;;;;;;;;;5109024;28;20034;-81
2022/10/09 01:28:40;;;;;;;2.05;0.70;;;;;;;;;;5092847;28;20031;-81
2022/10/09 01:31:07;;;;;;;1.60;1.20;;;;;;;;;;5094646;28;20568;-82
2022/10/09 01:33:33;;;;;;;0.70;0.68;;;;;;;;;;5090668;28;20490;-82
2022/10/09 01:36:00;;;;;;;0.93;0.68;;;;;;;;;;5112224;28;20443;-83
2022/10/09 01:38:27;;;;;;;0.65;0.65;;;;;;;;;;5107792;28;20031;-82
2022/10/09 01:40:53;;;;;;;0.32;0.32;;;;;;;;;;5108269;28;20020;-84
2022/10/09 01:43:19;;;;;;;1.65;0.45;;;;;;;;;;5110039;28;20092;-82
2022/10/09 01:45:47;;;;;;;0.77;0.77;;;;;;;;;;5113316;28;20386;-81
2022/10/09 01:48:23;;;;;;;0.45;0.45;;;;;;;;;;5093888;28;21811;-82
2022/10/09 01:50:57;;;;;;;0.30;0.28;;;;;;;;;;5111007;28;20030;-81
2022/10/09 01:53:23;;;;;;;0.57;0.43;;;;;;;;;;5093227;28;20019;-82
2022/10/09 01:56:06;;;;;;;1.27;0.98;;;;;;;;;;5094124;28;20031;-83
2022/10/09 01:58:43;;;;;;;2.08;1.40;;;;;;;;;;5094595;28;20066;-81
2022/10/09 02:01:15;;;;;;;0.63;0.60;;;;;;;;;;5092211;28;20027;-81
2022/10/09 02:03:45;;;;;;;1.23;1.13;;;;;;;;;;5112051;27;20028;-82
2022/10/09 02:06:13;;;;;;;0.57;0.57;;;;;;;;;;5111827;27;20024;-81
2022/10/09 02:08:40;;;;;;;0.63;0.63;;;;;;;;;;5110084;28;20023;-81
2022/10/09 02:11:06;;;;;;;1.10;0.80;;;;;;;;;;5112526;28;20032;-82
2022/10/09 02:13:34;;;;;;;0.90;0.88;;;;;;;;;;5093257;28;20015;-83
2022/10/09 02:16:17;;;;;;;1.42;0.90;;;;;;;;;;5092833;28;20027;-83
2022/10/09 02:18:50;;;;;;;0.98;0.70;;;;;;;;;;5111601;28;20023;-83
2022/10/09 02:21:21;;;;;;;1.45;1.15;;;;;;;;;;5111967;28;20099;-80
2022/10/09 02:23:48;;;;;;;0.47;0.47;;;;;;;;;;5092620;28;20460;-84
2022/10/09 02:26:14;;;;;;;1.40;0.90;;;;;;;;;;5092584;28;20023;-83
2022/10/09 02:28:40;;;;;;;1.10;0.63;;;;;;;;;;5109631;28;20152;-83
2022/10/09 02:31:18;;;;;;;1.25;0.95;;;;;;;;;;5091365;28;20027;-83
2022/10/09 02:33:44;;;;;;;0.55;0.55;;;;;;;;;;5110159;28;20076;-82
2022/10/09 02:36:10;;;;;;;0.60;0.50;;;;;;;;;;5111604;28;20498;-83
2022/10/09 02:38:35;;;;;;;2.05;0.90;;;;;;;;;;5092025;28;20399;-82
2022/10/09 02:41:01;;;;;;;0.75;0.75;;;;;;;;;;5093582;28;20051;-82
2022/10/09 02:43:27;;;;;;;0.57;0.57;;;;;;;;;;5093349;28;20118;-81
2022/10/09 02:45:52;;;;;;;0.73;0.73;;;;;;;;;;5111250;28;20019;-84
2022/10/09 02:48:18;;;;;;;0.57;0.55;;;;;;;;;;5093264;28;20032;-83
2022/10/09 02:50:44;;;;;;;2.05;1.60;;;;;;;;;;5112110;28;20035;-83
2022/10/09 02:53:09;;;;;;;0.60;0.60;;;;;;;;;;5111411;28;20077;-85
2022/10/09 02:55:35;;;;;;;2.38;0.70;;;;;;;;;;5110509;28;20027;-82
2022/10/09 02:58:01;;;;;;;1.05;0.95;;;;;;;;;;5111890;28;20019;-84
2022/10/09 03:00:26;;;;;;;1.88;1.00;;;;;;;;;;5111286;28;20042;-82
2022/10/09 03:02:51;;;;;;;0.63;0.63;;;;;;;;;;5091131;28;20030;-83
2022/10/09 03:05:17;;;;;;;2.05;1.05;;;;;;;;;;5094002;28;20028;-82
2022/10/09 03:07:49;;;;;;;1.17;1.08;;;;;;;;;;5111611;28;20030;-83
2022/10/09 03:10:15;;;;;;;1.02;0.75;;;;;;;;;;5093520;28;20023;-82
2022/10/09 03:12:41;;;;;;;0.70;0.70;;;;;;;;;;5091043;28;20028;-82
2022/10/09 03:15:07;;;;;;;1.80;1.13;;;;;;;;;;5093449;28;20024;-80
2022/10/09 03:17:32;;;;;;;0.98;0.80;;;;;;;;;;5107036;28;20107;-81
2022/10/09 03:19:58;;;;;;;1.17;0.80;;;;;;;;;;5109386;28;20135;-81
2022/10/09 03:22:23;;;;;;;1.58;0.80;;;;;;;;;;5111019;28;20015;-82
2022/10/09 03:24:48;;;;;;;0.35;0.35;;;;;;;;;;5110539;28;20034;-80
2022/10/09 03:27:14;;;;;;;0.80;0.80;;;;;;;;;;5110988;28;20514;-83
2022/10/09 03:29:39;;;;;;;0.63;0.47;;;;;;;;;;5108220;28;20028;-82
2022/10/09 03:32:05;;;;;;;0.73;0.60;;;;;;;;;;5111826;28;20502;-82
2022/10/09 03:34:30;;;;;;;0.60;0.60;;;;;;;;;;5089172;28;20015;-82
2022/10/09 03:36:55;;;;;;;1.23;0.90;;;;;;;;;;5092603;28;20020;-81
2022/10/09 03:39:21;;;;;;;1.90;1.42;;;;;;;;;;5095193;28;20035;-82
2022/10/09 03:41:46;;;;;;;0.85;0.75;;;;;;;;;;5096684;28;20030;-82
2022/10/09 03:44:12;;;;;;;0.73;0.60;;;;;;;;;;5096276;28;20039;-81
2022/10/09 03:46:37;;;;;;;0.47;0.47;;;;;;;;;;5112898;28;20019;-81
2022/10/09 03:49:03;;;;;;;0.70;0.63;;;;;;;;;;5095756;28;20055;-83
2022/10/09 03:51:28;;;;;;;1.33;1.00;;;;;;;;;;5114211;28;20467;-82
2022/10/09 03:53:54;;;;;;;0.60;0.55;;;;;;;;;;5114742;28;20503;-82
2022/10/09 03:56:19;;;;;;;1.10;1.00;;;;;;;;;;5114716;28;20103;-82
2022/10/09 03:58:45;;;;;;;0.50;0.50;;;;;;;;;;5095338;28;20042;-82
2022/10/09 04:01:10;;;;;;;1.65;0.85;;;;;;;;;;5096538;28;20042;-82
2022/10/09 04:03:35;;;;;;;0.52;0.50;;;;;;;;;;5114859;28;20031;-81
2022/10/09 04:06:01;;;;;;;0.32;0.25;;;;;;;;;;5094171;28;20023;-82
2022/10/09 04:08:26;;;;;;;0.35;0.25;;;;;;;;;;5113565;28;20032;-81
2022/10/09 04:10:58;;;;;;;0.30;0.30;;;;;;;;;;5114507;28;20043;-83
2022/10/09 04:13:24;;;;;;;0.40;0.40;;;;;;;;;;5114699;28;20059;-82
2022/10/09 04:15:51;;;;;;;0.60;0.60;;;;;;;;;;5115007;28;20510;-82
2022/10/09 04:18:17;;;;;;;1.23;0.80;;;;;;;;;;5113565;28;20483;-81
2022/10/09 04:20:48;;;;;;;1.35;0.47;;;;;;;;;;5112200;28;20035;-82
2022/10/09 04:23:13;;;;;;;0.40;0.32;;;;;;;;;;5112912;28;20034;-82
2022/10/09 04:25:39;;;;;;;0.40;0.40;;;;;;;;;;5114588;28;20395;-83
2022/10/09 04:28:04;;;;;;;2.45;1.15;;;;;;;;;;5095141;28;20019;-82
2022/10/09 04:30:29;;;;;;;0.70;0.70;;;;;;;;;;5114405;28;20035;-81
2022/10/09 04:32:55;;;;;;;1.90;1.05;;;;;;;;;;5106068;28;20042;-81
2022/10/09 04:35:20;;;;;;;0.68;0.50;;;;;;;;;;5113650;28;20024;-83
2022/10/09 04:37:45;;;;;;;1.13;0.50;;;;;;;;;;5106151;28;20126;-81
2022/10/09 04:40:11;;;;;;;0.43;0.43;;;;;;;;;;5094587;28;20460;-82
2022/10/09 04:42:37;;;;;;;0.95;0.75;;;;;;;;;;5090084;28;20051;-82
2022/10/09 04:45:03;;;;;;;0.80;0.80;;;;;;;;;;5110434;28;20076;-84
2022/10/09 04:47:28;;;;;;;0.77;0.75;;;;;;;;;;5096798;28;20032;-84
2022/10/09 04:49:53;;;;;;;0.50;0.40;;;;;;;;;;5095616;28;20475;-85
2022/10/09 04:52:19;;;;;;;0.52;0.52;;;;;;;;;;5111618;28;20023;-85
2022/10/09 04:54:45;;;;;;;0.55;0.55;;;;;;;;;;5096745;28;20023;-86
2022/10/09 04:57:11;;;;;;;0.43;0.43;;;;;;;;;;5108421;28;20027;-85
2022/10/09 04:59:36;;;;;;;1.08;0.77;;;;;;;;;;5114265;28;20019;-84
2022/10/09 05:02:02;;;;;;;0.60;0.57;;;;;;;;;;5115921;27;20106;-86
2022/10/09 05:04:28;;;;;;;1.10;0.73;;;;;;;;;;5094078;28;20038;-84
2022/10/09 05:06:53;;;;;;;0.75;0.70;;;;;;;;;;5115058;28;20031;-84
2022/10/09 05:09:19;;;;;;;0.85;0.80;;;;;;;;;;5093033;28;20244;-84
2022/10/09 05:11:44;;;;;;;0.75;0.60;;;;;;;;;;5113480;28;20015;-83
2022/10/09 05:14:09;;;;;;;0.60;0.60;;;;;;;;;;5112908;28;20375;-84
2022/10/09 05:16:35;;;;;;;0.75;0.60;;;;;;;;;;5109874;28;20024;-84
2022/10/09 05:19:01;;;;;;;1.25;0.77;;;;;;;;;;5111426;28;20027;-84
2022/10/09 05:21:28;;;;;;;0.80;0.80;;;;;;;;;;5113799;28;20050;-87
2022/10/09 05:23:54;;;;;;;1.25;0.63;;;;;;;;;;5095619;28;20096;-85
2022/10/09 05:26:22;;;;;;;1.52;0.88;;;;;;;;;;5095351;28;20562;-84
2022/10/09 05:28:48;;;;;;;1.25;1.00;;;;;;;;;;5095000;28;20103;-86
2022/10/09 05:31:22;;;;;;;2.95;1.10;;;;;;;;;;5093029;28;20477;-84
2022/10/09 05:33:48;;;;;;;0.98;0.93;;;;;;;;;;5092563;28;20103;-84
2022/10/09 05:36:14;;;;;;;0.85;0.65;;;;;;;;;;5095443;28;20118;-85
2022/10/09 05:38:40;;;;;;;1.52;0.93;;;;;;;;;;5110580;28;20084;-85
2022/10/09 05:41:06;;;;;;;0.65;0.55;;;;;;;;;;5093608;28;20028;-85
2022/10/09 05:43:37;;;;;;;0.80;0.80;;;;;;;;;;5107721;28;20031;-85
2022/10/09 05:46:23;;;;;;;1.90;1.42;;;;;;;;;;5094432;28;20028;-86
2022/10/09 05:48:55;;;;;;;1.52;1.23;;;;;;;;;;5111716;28;20047;-85
2022/10/09 05:51:29;;;;;;;3.13;1.02;;;;;;;;;;5110847;28;20032;-85
2022/10/09 05:53:55;;;;;;;1.33;0.93;;;;;;;;;;5110767;28;20019;-86
2022/10/09 05:56:32;;;;;;;1.35;1.25;;;;;;;;;;5091888;28;20483;-86
2022/10/09 05:59:01;;;;;;;3.90;1.48;;;;;;;;;;5110995;28;20019;-86
2022/10/09 06:01:30;;;;;;;3.95;1.83;;;;;;;;;;5112637;28;20035;-87
2022/10/09 06:03:58;;;;;;;1.95;1.52;;;;;;;;;;5092256;28;20051;-88
2022/10/09 06:06:26;;;;;;;1.20;0.80;;;;;;;;;;5092572;28;20076;-87
2022/10/09 06:08:52;;;;;;;2.78;1.90;;;;;;;;;;5111326;28;20059;-86
2022/10/09 06:11:23;;;;;;;3.25;2.35;;;;;;;;;;5113998;28;20600;-86
2022/10/09 06:13:49;;;;;;;3.08;1.58;;;;;;;;;;5110062;28;20024;-86
2022/10/09 06:16:16;;;;;;;2.67;1.67;;;;;;;;;;5112311;28;20024;-83
2022/10/09 06:18:47;;;;;;;1.48;1.33;;;;;;;;;;5092157;28;20156;-84
2022/10/09 06:21:14;;;;;;;1.92;1.67;;;;;;;;;;5092697;28;20492;-85
2022/10/09 06:23:39;;;;;;;4.57;2.00;;;;;;;;;;5091880;28;20026;-87
2022/10/09 06:26:12;;;;;;;3.20;1.83;;;;;;;;;;5090868;28;20027;-84
2022/10/09 06:28:37;;;;;;;1.35;1.25;;;;;;;;;;5110737;28;20418;-82
2022/10/09 06:31:06;;;;;;;2.42;1.52;;;;;;;;;;5112180;28;20042;-84
2022/10/09 06:33:33;;;;;;;2.05;1.52;;;;;;;;;;5112581;28;20030;-86
2022/10/09 06:36:00;;;;;;;1.85;1.65;;;;;;;;;;5108701;28;20073;-83
2022/10/09 06:38:26;;;;;;;2.78;2.00;;;;;;;;;;5093875;28;20032;-91
2022/10/09 06:40:52;;;;;;;3.20;1.77;;;;;;;;;;5109730;28;20072;-86
2022/10/09 06:43:17;;;;;;;3.13;1.95;;;;;;;;;;5108611;28;20341;-86
2022/10/09 06:45:42;;;;;;;2.25;1.95;;;;;;;;;;5109995;28;20055;-85
2022/10/09 06:48:08;;;;;;;5.00;2.50;;;;;;;;;;5090391;28;20116;-86
2022/10/09 06:50:36;;;;;;;2.38;2.05;;;;;;;;;;5110822;28;20023;-86
2022/10/09 06:53:05;;;;;;;1.45;1.35;;;;;;;;;;5111763;28;20502;-85
2022/10/09 06:55:31;;;;;;;2.83;2.33;;;;;;;;;;5093672;28;20036;-87
2022/10/09 06:57:57;;;;;;;3.10;2.38;;;;;;;;;;5089930;28;20027;-87
2022/10/09 07:00:22;;;;;;;3.78;2.30;;;;;;;;;;5095367;28;20035;-89
2022/10/09 07:02:48;;;;;;;4.97;2.47;;;;;;;;;;5091576;28;20498;-85
2022/10/09 07:05:14;;;;;;;1.98;1.73;;;;;;;;;;5092682;28;20035;-84
2022/10/09 07:07:40;;;;;;;2.05;1.85;;;;;;;;;;5111532;28;20023;-90
2022/10/09 07:14:06;;;;;;;1.60;1.40;;;;;;;;;;5036538;28;20074;-86
2022/10/09 07:27:53;;;;;;;;;;;;;;;;;;5033509;28;20101;-87
2022/10/09 07:30:18;;;;;;;2.65;2.03;;;;;;;;;;5031870;28;20352;-87
2022/10/09 07:32:44;;;;;;;2.17;1.80;;;;;;;;;;5070974;28;20086;-86
2022/10/09 07:35:09;;;;;;;4.05;2.17;;;;;;;;;;5090348;28;20029;-84
2022/10/09 07:37:35;;;;;;;3.10;2.42;;;;;;;;;;5093628;28;20016;-87
2022/10/09 07:40:00;;;;;;;3.83;2.08;;;;;;;;;;5093026;28;20051;-83
2022/10/09 07:42:25;;;;;;;7.78;4.32;;;;;;;;;;5092138;28;20028;-86
2022/10/09 07:44:51;;;;;;;5.63;4.28;;;;;;;;;;5091691;28;20024;-86
2022/10/09 07:47:16;;;;;;;4.32;2.90;;;;;;;;;;5089730;28;20111;-87
2022/10/09 07:49:42;;;;;;;2.60;2.05;;;;;;;;;;5094096;28;20028;-84
2022/10/09 07:52:07;;;;;;;6.72;3.15;;;;;;;;;;5094425;28;20091;-84
2022/10/09 07:54:32;;;;;;;4.57;3.08;;;;;;;;;;5090931;28;20077;-83
2022/10/09 07:56:58;;;;;;;3.78;2.00;;;;;;;;;;5092906;28;20024;-88
2022/10/09 07:59:23;;;;;;;3.38;2.38;;;;;;;;;;5088862;28;20030;-85
2022/10/09 08:01:48;;;;;;;3.65;2.75;;;;;;;;;;5089544;28;20081;-87
2022/10/09 08:04:14;;;;;;;3.75;2.28;;;;;;;;;;5091385;28;20024;-86
2022/10/09 08:06:39;;;;;;;4.82;3.10;;;;;;;;;;5094798;28;20470;-87
2022/10/09 08:09:06;;;;;;;3.70;2.70;;;;;;;;;;5092713;28;20098;-87
2022/10/09 08:11:31;;;;;;;7.72;6.20;;;;;;;;;;5091972;28;20531;-86
2022/10/09 08:13:57;;;;;;;11.65;6.10;;;;;;;;;;5094087;28;20099;-85
2022/10/09 08:16:24;;;;;;;4.78;2.65;;;;;;;;;;5094418;28;20024;-86
2022/10/09 08:18:54;;;;;;;3.35;2.33;;;;;;;;;;5091946;28;20035;-87
2022/10/09 08:21:19;;;;;;;2.40;1.90;;;;;;;;;;5094019;28;20028;-87
2022/10/09 08:23:45;;;;;;;2.90;2.50;;;;;;;;;;5100721;28;20386;-87
2022/10/09 08:26:16;;;;;;;2.53;2.25;;;;;;;;;;5092833;28;20027;-87
2022/10/09 08:28:42;;;;;;;1.50;1.17;;;;;;;;;;5094086;28;20023;-83
2022/10/09 08:31:12;;;;;;;0.98;0.93;;;;;;;;;;5112312;28;20076;-90
2022/10/09 08:33:38;;;;;;;2.00;1.38;;;;;;;;;;5112527;28;20050;-87
2022/10/09 08:36:07;;;;;;;1.38;0.73;;;;;;;;;;5109225;28;20055;-86
2022/10/09 08:38:33;;;;;;;;;;;;;;;;;;5094742;28;20035;-85
2022/10/09 08:41:11;;;;;;;1.50;1.10;;;;;;;;;;5111003;28;19918;-85
2022/10/09 08:43:41;;;;;;;1.60;1.17;;;;;;;;;;5092258;28;20092;-88
2022/10/09 08:46:13;;;;;;;;;;;;;;;;;;5094153;28;20024;-87
2022/10/09 08:48:41;;;;;;;4.85;1.15;;;;;;;;;;5115426;28;19919;-87
2022/10/09 08:51:14;;;;;;;2.38;1.70;;;;;;;;;;5115586;28;20055;-87
2022/10/09 08:53:56;;;;;;;1.98;1.33;;;;;;;;;;5095996;28;20019;-87
2022/10/09 08:56:24;;;;;;;2.15;1.42;;;;;;;;;;5097173;28;20028;-86
2022/10/09 08:58:49;;;;;;;3.55;1.25;;;;;;;;;;5115327;28;20475;-84
2022/10/09 09:01:43;;;;;;;1.10;1.00;;;;;;;;;;5113693;28;20111;-86
2022/10/09 09:04:43;;;;;;;3.05;1.48;;;;;;;;;;5110963;28;20089;-87
2022/10/09 09:07:18;;;;;;;;;;;;;;;;;;5092588;28;20391;-85
2022/10/09 09:09:52;;;;;;;1.00;0.90;;;;;;;;;;5114556;28;19912;-85
2022/10/09 09:12:33;;;;;;;1.55;1.45;;;;;;;;;;5109558;28;20497;-87
2022/10/09 09:15:12;;;;;;;2.38;1.50;;;;;;;;;;5090781;28;20020;-84
2022/10/09 09:17:40;;;;;;;1.48;1.23;;;;;;;;;;5094905;28;20051;-83
2022/10/09 09:20:21;;;;;;;1.48;1.05;;;;;;;;;;5113392;28;20501;-86
2022/10/09 09:22:48;;;;;;;1.75;0.75;;;;;;;;;;5110023;28;20020;-84
2022/10/09 09:25:34;;;;;;;4.13;1.40;;;;;;;;;;5112520;28;20046;-85
2022/10/09 09:28:12;;;;;;;1.13;1.02;;;;;;;;;;5114953;28;20028;-87
2022/10/09 09:30:46;;;;;;;1.48;1.08;;;;;;;;;;5114323;28;20027;-84
2022/10/09 09:33:18;;;;;;;2.55;1.55;;;;;;;;;;5110001;28;20027;-85
2022/10/09 09:36:07;;;;;;;1.67;1.00;;;;;;;;;;5095999;28;20027;-84
2022/10/09 09:38:34;;;;;;;4.43;2.53;;;;;;;;;;5111953;28;20031;-85
2022/10/09 09:41:00;;;;;;;2.38;1.27;;;;;;;;;;5092384;28;20035;-83
2022/10/09 09:43:25;;;;;;;3.60;2.70;;;;;;;;;;5113768;28;20114;-83
2022/10/09 09:45:53;;;;;;;2.25;1.40;;;;;;;;;;5113726;28;20438;-83
2022/10/09 09:48:42;;;;;;;2.53;1.00;;;;;;;;;;5110289;28;20103;-86
2022/10/09 09:51:30;;;;;;;0.60;0.60;;;;;;;;;;5088986;28;20027;-83
2022/10/09 09:54:04;;;;;;;1.88;1.20;;;;;;;;;;5112966;28;20032;-85
2022/10/09 09:56:37;;;;;;;1.65;1.10;;;;;;;;;;5092731;28;20104;-83
2022/10/09 09:59:03;;;;;;;1.85;1.30;;;;;;;;;;5093027;28;20015;-85
2022/10/09 10:01:30;;;;;;;1.48;1.38;;;;;;;;;;5095293;28;20023;-83
2022/10/09 10:03:59;;;;;;;1.60;0.93;;;;;;;;;;5113469;28;20023;-83
2022/10/09 10:06:34;;;;;;;1.17;0.85;;;;;;;;;;5092242;28;20123;-82
2022/10/09 10:09:05;;;;;;;1.08;0.98;;;;;;;;;;5093908;28;20020;-85
2022/10/09 10:11:34;;;;;;;1.10;0.70;;;;;;;;;;5110858;28;20030;-84
2022/10/09 10:14:07;;;;;;;1.42;1.15;;;;;;;;;;5109508;28;20020;-84
2022/10/09 10:16:36;;;;;;;0.95;0.77;;;;;;;;;;5108587;28;20364;-83
2022/10/09 10:19:03;;;;;;;1.70;1.30;;;;;;;;;;5088353;28;20471;-84
2022/10/09 10:21:45;;;;;;;1.75;1.17;;;;;;;;;;5111352;28;20027;-85
2022/10/09 10:24:17;;;;;;;1.77;1.10;;;;;;;;;;5092641;28;20096;-83
2022/10/09 10:26:57;;;;;;;2.22;1.00;;;;;;;;;;5088623;28;20051;-84
2022/10/09 10:29:39;;;;;;;5.53;1.15;;;;;;;;;;5091559;28;20089;-83
2022/10/09 10:32:23;;;;;;;1.88;1.50;;;;;;;;;;5109126;28;20028;-83
2022/10/09 10:34:55;;;;;;;1.15;0.80;;;;;;;;;;5087165;28;20024;-83
2022/10/09 10:37:32;;;;;;;1.15;0.80;;;;;;;;;;5093378;28;20396;-82
2022/10/09 10:40:00;;;;;;;1.17;1.00;;;;;;;;;;5092746;28;20391;-83
2022/10/09 10:43:02;;;;;;;0.98;0.77;;;;;;;;;;5112403;28;20036;-84
2022/10/09 10:45:37;;;;;;;1.77;0.98;;;;;;;;;;5093403;28;20032;-83
2022/10/09 10:48:08;;;;;;;0.80;0.73;;;;;;;;;;5111831;28;20023;-83
2022/10/09 10:50:49;;;;;;;1.70;1.30;;;;;;;;;;5094292;28;20390;-83
2022/10/09 10:53:39;;;;;;;2.40;1.50;;;;;;;;;;5112714;28;20019;-85
2022/10/09 10:56:27;;;;;;;;;;;;;;;;;;5092302;28;20399;-84
2022/10/09 10:59:15;;;;;;;1.63;1.02;;;;;;;;;;5069087;28;19919;-80
2022/10/09 11:01:51;;;;;;;1.85;1.50;;;;;;;;;;5110031;28;20361;-82
2022/10/09 11:04:39;;;;;;;1.55;1.13;;;;;;;;;;5105460;28;20023;-79
2022/10/09 11:07:45;;;;;;;1.80;1.17;;;;;;;;;;5073751;28;20142;-84
2022/10/09 11:10:13;;;;;;;1.45;0.88;;;;;;;;;;5060660;28;20046;-85
2022/10/09 11:12:44;;;;;;;6.20;1.30;;;;;;;;;;5107769;28;20098;-85
2022/10/09 11:15:52;;;;;;;0.75;0.70;;;;;;;;;;5090739;28;20079;-84
2022/10/09 11:18:57;;;;;;;0.98;0.82;;;;;;;;;;5101997;28;20042;-82
2022/10/09 11:21:35;;;;;;;1.10;0.93;;;;;;;;;;5108332;28;20020;-84
2022/10/09 11:24:25;;;;;;;3.13;1.23;;;;;;;;;;5091804;28;20050;-82
2022/10/09 11:26:59;;;;;;;0.63;0.55;;;;;;;;;;5109928;28;20031;-89
2022/10/09 11:29:42;;;;;;;0.73;0.70;;;;;;;;;;5110523;28;20488;-83
2022/10/09 11:32:18;;;;;;;1.30;1.05;;;;;;;;;;5093605;28;20031;-86
2022/10/09 11:35:04;;;;;;;1.52;1.00;;;;;;;;;;5091565;28;20337;-83
2022/10/09 11:37:34;;;;;;;0.88;0.80;;;;;;;;;;5093337;28;20471;-85
2022/10/09 11:40:04;;;;;;;0.95;0.82;;;;;;;;;;5092837;28;20045;-83
2022/10/09 11:42:30;;;;;;;2.83;1.15;;;;;;;;;;5109137;28;20027;-85
2022/10/09 11:45:14;;;;;;;1.80;1.38;;;;;;;;;;5090761;28;20027;-82
2022/10/09 11:47:42;;;;;;;1.27;0.93;;;;;;;;;;5110057;28;20031;-85
2022/10/09 11:50:26;;;;;;;0.85;0.80;;;;;;;;;;5089014;28;20027;-83
2022/10/09 11:53:01;;;;;;;1.73;1.33;;;;;;;;;;5111008;28;20028;-84
2022/10/09 11:55:29;;;;;;;6.43;1.48;;;;;;;;;;5092295;28;20032;-83
2022/10/09 11:58:26;;;;;;;1.43;1.00;;;;;;;;;;5111453;28;20066;-82
2022/10/09 12:00:54;;;;;;;1.23;1.02;;;;;;;;;;5094752;28;20498;-82
2022/10/09 12:03:35;;;;;;;3.20;1.50;;;;;;;;;;5094564;28;20024;-82
2022/10/09 12:06:06;;;;;;;1.52;1.30;;;;;;;;;;5113202;28;20554;-83
2022/10/09 12:08:32;;;;;;;2.03;1.33;;;;;;;;;;5114120;27;20027;-84
2022/10/09 12:11:14;;;;;;;1.23;0.98;;;;;;;;;;5113564;28;20032;-85
2022/10/09 12:13:47;;;;;;;1.77;1.30;;;;;;;;;;5110673;28;20023;-82
2022/10/09 12:16:34;;;;;;;1.10;1.02;;;;;;;;;;5095567;28;20026;-85
2022/10/09 12:19:02;;;;;;;1.90;1.30;;;;;;;;;;5096014;28;20031;-84
2022/10/09 12:21:35;;;;;;;1.63;1.30;;;;;;;;;;5091431;28;20023;-81
2022/10/09 12:24:01;;;;;;;0.95;0.82;;;;;;;;;;5113816;28;20495;-81
2022/10/09 12:26:28;;;;;;;2.15;1.40;;;;;;;;;;5111573;28;20050;-82
2022/10/09 12:29:00;;;;;;;2.78;1.85;;;;;;;;;;5093221;28;20165;-84
2022/10/09 12:31:37;;;;;;;1.80;1.20;;;;;;;;;;5111200;28;20066;-83
2022/10/09 12:34:25;;;;;;;2.85;1.00;;;;;;;;;;5091234;28;20024;-84
2022/10/09 12:37:01;;;;;;;2.33;1.42;;;;;;;;;;5091116;28;20035;-85
2022/10/09 12:39:27;;;;;;;2.28;1.52;;;;;;;;;;5112378;28;20413;-82
2022/10/09 12:41:56;;;;;;;1.33;1.15;;;;;;;;;;5109501;28;20111;-84
2022/10/09 12:44:30;;;;;;;2.03;1.40;;;;;;;;;;5112987;28;20024;-84
2022/10/09 12:47:01;;;;;;;1.70;1.35;;;;;;;;;;5093081;28;20126;-84
2022/10/09 12:49:27;;;;;;;1.95;1.30;;;;;;;;;;5112150;28;20124;-84
2022/10/09 12:51:54;;;;;;;1.58;1.15;;;;;;;;;;5113044;28;20073;-83
2022/10/09 12:54:21;;;;;;;1.95;1.45;;;;;;;;;;5111073;28;20474;-86
2022/10/09 12:56:47;;;;;;;1.90;1.48;;;;;;;;;;5113148;28;20374;-84
2022/10/09 12:59:13;;;;;;;2.63;1.65;;;;;;;;;;5108414;28;20073;-83
2022/10/09 13:01:40;;;;;;;3.10;1.52;;;;;;;;;;5110948;28;20489;-84
2022/10/09 13:04:08;;;;;;;2.20;1.20;;;;;;;;;;5110560;28;20471;-86
2022/10/09 13:06:43;;;;;;;3.20;1.17;;;;;;;;;;5093549;28;20110;-83
2022/10/09 13:09:20;;;;;;;2.13;1.52;;;;;;;;;;5091566;28;20376;-83
2022/10/09 13:11:53;;;;;;;1.63;1.25;;;;;;;;;;5093283;28;20051;-86
2022/10/09 13:14:26;;;;;;;3.17;1.27;;;;;;;;;;5092853;28;20111;-84
2022/10/09 13:16:52;;;;;;;4.43;1.50;;;;;;;;;;5107949;28;20487;-85
2022/10/09 13:19:25;;;;;;;5.55;1.77;;;;;;;;;;5112112;28;20031;-86
2022/10/09 13:22:06;;;;;;;2.25;1.52;;;;;;;;;;5111664;28;20110;-83
2022/10/09 13:24:31;;;;;;;4.10;2.30;;;;;;;;;;5110211;28;20040;-84
2022/10/09 13:26:57;;;;;;;2.10;1.30;;;;;;;;;;5111169;28;20037;-83
2022/10/09 13:29:22;;;;;;;1.83;1.60;;;;;;;;;;5111940;28;20046;-83
2022/10/09 13:31:48;;;;;;;4.80;1.20;;;;;;;;;;5093976;28;20031;-84
2022/10/09 13:34:15;;;;;;;1.85;1.60;;;;;;;;;;5092832;28;20032;-84
2022/10/09 13:36:40;;;;;;;4.15;2.03;;;;;;;;;;5110542;28;20020;-84
2022/10/09 13:39:09;;;;;;;2.05;1.55;;;;;;;;;;5113298;28;20056;-86
2022/10/09 13:41:35;;;;;;;2.63;1.70;;;;;;;;;;5111996;28;20429;-85
2022/10/09 13:44:01;;;;;;;2.22;1.30;;;;;;;;;;5092054;28;20459;-83
2022/10/09 13:46:26;;;;;;;2.30;1.50;;;;;;;;;;5110927;28;20262;-85
2022/10/09 13:48:52;;;;;;;3.33;1.85;;;;;;;;;;5093883;28;20119;-84
2022/10/09 13:51:17;;;;;;;1.83;1.48;;;;;;;;;;5112947;28;20138;-87
2022/10/09 13:53:42;;;;;;;2.15;1.45;;;;;;;;;;5093668;28;20417;-83
2022/10/09 13:56:08;;;;;;;2.38;1.65;;;;;;;;;;5110660;28;20038;-85
2022/10/09 13:58:34;;;;;;;1.83;1.52;;;;;;;;;;5102726;28;20035;-87
2022/10/09 14:00:59;;;;;;;4.25;1.38;;;;;;;;;;5111886;28;20113;-89
2022/10/09 14:03:24;;;;;;;1.90;1.30;;;;;;;;;;5108807;28;20031;-86
2022/10/09 14:05:56;;;;;;;3.60;1.80;;;;;;;;;;5109790;28;20020;-88
2022/10/09 14:08:22;;;;;;;2.53;1.63;;;;;;;;;;5107392;28;20589;-88
2022/10/09 14:10:47;;;;;;;2.25;1.50;;;;;;;;;;5111955;28;20110;-86
2022/10/09 14:13:13;;;;;;;1.67;1.33;;;;;;;;;;5111846;28;20039;-86
2022/10/09 14:15:40;;;;;;;1.55;1.30;;;;;;;;;;5092922;28;20023;-85
2022/10/09 14:18:06;;;;;;;1.83;1.40;;;;;;;;;;5108789;28;20420;-85
2022/10/09 14:20:32;;;;;;;1.80;1.45;;;;;;;;;;5109662;28;20027;-83
2022/10/09 14:22:57;;;;;;;2.22;1.65;;;;;;;;;;5110873;28;20076;-85
2022/10/09 14:25:23;;;;;;;1.25;1.13;;;;;;;;;;5093990;28;20028;-86
2022/10/09 14:27:48;;;;;;;4.32;1.40;;;;;;;;;;5112494;28;20032;-83
2022/10/09 14:30:13;;;;;;;1.55;1.17;;;;;;;;;;5112673;28;20026;-84
2022/10/09 14:32:39;;;;;;;1.20;0.95;;;;;;;;;;5111649;28;20089;-85
2022/10/09 14:35:05;;;;;;;6.00;1.80;;;;;;;;;;5112091;28;20018;-85
2022/10/09 14:37:30;;;;;;;2.00;1.65;;;;;;;;;;5110489;28;20039;-85
2022/10/09 14:39:55;;;;;;;1.73;1.38;;;;;;;;;;5091643;28;20031;-85
2022/10/09 14:42:21;;;;;;;2.00;1.48;;;;;;;;;;5092319;28;20348;-83
2022/10/09 14:44:47;;;;;;;1.48;1.17;;;;;;;;;;5110263;28;20111;-83
2022/10/09 14:47:12;;;;;;;1.88;1.45;;;;;;;;;;5112084;28;20024;-83
2022/10/09 14:49:38;;;;;;;1.90;1.55;;;;;;;;;;5111997;28;20136;-85
2022/10/09 14:52:03;;;;;;;2.78;1.52;;;;;;;;;;5112468;28;20472;-84
2022/10/09 14:54:29;;;;;;;1.63;1.42;;;;;;;;;;5094312;28;20084;-83
2022/10/09 14:56:54;;;;;;;1.25;1.15;;;;;;;;;;5111552;28;20023;-85
2022/10/09 14:59:19;;;;;;;1.10;0.90;;;;;;;;;;5112247;28;20024;-82
2022/10/09 15:01:45;;;;;;;2.00;1.50;;;;;;;;;;5109000;28;20020;-83
2022/10/09 15:04:12;;;;;;;1.73;1.60;;;;;;;;;;5110256;28;20027;-82
2022/10/09 15:06:38;;;;;;;1.15;1.00;;;;;;;;;;5106908;28;20024;-82
2022/10/09 15:09:04;;;;;;;1.30;1.20;;;;;;;;;;5107606;28;20050;-81
2022/10/09 15:11:30;;;;;;;0.98;0.70;;;;;;;;;;5107378;28;20542;-83
2022/10/09 15:13:56;;;;;;;1.10;1.00;;;;;;;;;;5108842;28;20087;-79
2022/10/09 15:16:21;;;;;;;2.75;1.30;;;;;;;;;;5110140;28;20034;-80